Time;durP1;ratioP1;P1;durP2;ratioP2;P2;SDS_P1;SDS_P2;PMS_P1;PMS_P2;Temp;Humidity;BMP_temperature;BMP_pressure;BME280_temperature;BME280_humidity;BME280_pressure;Samples;Min_cycle;Max_cycle;Signal;HPM_P1;HPM_P2
2024/01/18 05:30:57;;;;;;;;;19.00;17.25;;;;;11.72;43.88;99049.16;5042775;27;45510;-79
2024/01/18 05:33:22;;;;;;;;;21.00;19.25;;;;;11.59;43.68;99026.91;5035957;28;45402;-80
2024/01/18 05:35:48;;;;;;;;;26.00;21.25;;;;;11.70;43.42;99058.28;5036169;28;46702;-79
2024/01/18 05:38:13;;;;;;;;;20.75;20.75;;;;;11.61;43.58;99034.84;5036168;28;45328;-79
2024/01/18 05:40:38;;;;;;;;;22.50;22.25;;;;;11.72;43.33;99059.03;5035906;28;45328;-79
2024/01/18 05:43:04;;;;;;;;;25.00;25.00;;;;;11.55;44.03;99043.38;5049514;28;45409;-78
2024/01/18 05:45:29;;;;;;;;;31.00;28.75;;;;;11.68;43.30;99062.91;5055788;28;53195;-78
2024/01/18 05:47:54;;;;;;;;;27.50;26.75;;;;;11.78;43.31;99087.25;5055794;28;45339;-80
2024/01/18 05:50:20;;;;;;;;;34.75;30.25;;;;;11.83;43.05;99085.91;5038138;28;45291;-77
2024/01/18 05:52:46;;;;;;;;;28.50;25.75;;;;;11.67;42.33;99086.22;5056053;28;45479;-79
2024/01/18 05:55:11;;;;;;;;;19.25;19.25;;;;;11.63;43.40;99081.22;5044510;28;46483;-79
2024/01/18 05:57:39;;;;;;;;;40.25;31.75;;;;;11.77;43.62;99104.34;5027033;28;45505;-79
2024/01/18 06:00:06;;;;;;;;;29.25;26.75;;;;;11.72;43.63;99107.34;5034146;28;45467;-81
2024/01/18 06:02:32;;;;;;;;;32.50;27.00;;;;;11.69;43.16;99105.75;5046851;28;45511;-80
2024/01/18 06:04:57;;;;;;;;;38.00;34.50;;;;;11.75;43.39;99126.78;5037158;28;47403;-80
2024/01/18 06:07:24;;;;;;;;;26.00;22.00;;;;;11.64;43.00;99118.69;5055654;28;45523;-80
2024/01/18 06:09:49;;;;;;;;;32.75;31.00;;;;;11.64;43.50;99112.44;5055542;28;45397;-80
2024/01/18 06:12:15;;;;;;;;;44.75;37.00;;;;;11.74;43.55;99124.19;5055526;28;45358;-80
2024/01/18 06:14:41;;;;;;;;;36.25;29.75;;;;;11.78;43.16;99133.75;5055619;28;45350;-80
2024/01/18 06:17:07;;;;;;;;;39.75;36.00;;;;;11.82;43.41;99143.31;5055342;28;45330;-77
2024/01/18 06:19:32;;;;;;;;;36.75;32.25;;;;;11.77;42.96;99133.88;5055806;28;45391;-76
2024/01/18 06:21:57;;;;;;;;;30.75;28.50;;;;;11.80;43.07;99155.13;5055535;28;57873;-77
2024/01/18 06:24:23;;;;;;;;;26.25;26.25;;;;;11.85;43.41;99177.97;5061153;28;45374;-77
2024/01/18 06:26:48;;;;;;;;;31.50;27.00;;;;;11.88;43.20;99188.47;5055147;28;45367;-77
2024/01/18 06:29:16;;;;;;;;;31.75;28.75;;;;;11.88;42.95;99190.31;5036532;28;55617;-75
2024/01/18 06:31:41;;;;;;;;;29.25;25.75;;;;;11.83;43.16;99187.09;5036917;28;45934;-76
2024/01/18 06:34:08;;;;;;;;;32.50;31.50;;;;;11.87;43.41;99204.69;5036428;28;54537;-76
2024/01/18 06:36:33;;;;;;;;;34.50;31.00;;;;;11.89;43.39;99217.03;5054440;28;45370;-76
2024/01/18 06:38:59;;;;;;;;;34.75;31.25;;;;;11.87;43.12;99216.31;5035159;28;45863;-73
2024/01/18 06:41:25;;;;;;;;;35.00;28.25;;;;;11.78;43.15;99211.63;5047451;28;45428;-78
2024/01/18 06:43:50;;;;;;;;;38.50;31.75;;;;;11.89;43.55;99241.22;5054669;28;45469;-79
2024/01/18 06:46:17;;;;;;;;;32.25;24.75;;;;;11.91;43.31;99251.84;5055428;28;45405;-76
2024/01/18 06:48:43;;;;;;;;;30.75;29.00;;;;;11.88;43.38;99255.59;5036704;28;45518;-79
2024/01/18 06:51:09;;;;;;;;;31.75;28.25;;;;;11.80;43.39;99259.84;5055243;28;46065;-76
2024/01/18 06:53:34;;;;;;;;;34.00;29.50;;;;;11.83;43.41;99286.44;5039839;28;45603;-77
2024/01/18 06:56:00;;;;;;;;;37.00;32.00;;;;;11.78;43.08;99286.78;5035560;28;45490;-74
2024/01/18 06:58:26;;;;;;;;;23.50;19.00;;;;;11.87;43.42;99301.38;5032322;28;45265;-72
2024/01/18 07:00:51;;;;;;;;;28.75;28.50;;;;;11.85;43.21;99303.31;5045142;28;45586;-72
2024/01/18 07:03:18;;;;;;;;;38.75;30.25;;;;;11.83;43.61;99305.22;5044869;28;53751;-75
2024/01/18 07:05:44;;;;;;;;;40.25;29.75;;;;;11.83;43.78;99303.41;5050110;28;45597;-81
2024/01/18 07:08:10;;;;;;;;;27.50;24.25;;;;;11.72;44.62;99282.72;5035021;28;45417;-78
2024/01/18 07:10:35;;;;;;;;;34.00;30.50;;;;;11.80;43.35;99309.03;5053625;28;45645;-80
2024/01/18 07:13:01;;;;;;;;;34.50;29.25;;;;;11.89;43.30;99335.22;5054499;28;45402;-81
2024/01/18 07:15:26;;;;;;;;;28.75;25.00;;;;;11.94;42.73;99334.84;5054306;28;45426;-77
2024/01/18 07:17:51;;;;;;;;;39.75;35.00;;;;;11.96;43.15;99351.72;5053283;28;53217;-77
2024/01/18 07:20:17;;;;;;;;;34.00;33.50;;;;;11.88;42.49;99332.63;5048667;28;45351;-77
2024/01/18 07:22:42;;;;;;;;;43.75;37.75;;;;;11.82;42.91;99355.44;5036012;28;48006;-77
2024/01/18 07:25:07;;;;;;;;;38.00;34.00;;;;;11.85;43.25;99373.97;5053966;28;57659;-77
2024/01/18 07:27:33;;;;;;;;;36.25;30.00;;;;;11.83;43.38;99378.59;5055028;28;45324;-76
2024/01/18 07:29:58;;;;;;;;;33.75;32.00;;;;;11.83;43.07;99397.41;5054412;28;45402;-77
2024/01/18 07:32:23;;;;;;;;;33.75;31.50;;;;;11.80;42.66;99394.94;5053627;28;45508;-74
2024/01/18 07:34:49;;;;;;;;;41.25;37.00;;;;;11.75;43.34;99387.22;5054585;28;45254;-80
2024/01/18 07:37:14;;;;;;;;;38.75;33.50;;;;;11.74;42.88;99396.22;5048790;28;45226;-71
2024/01/18 07:39:40;;;;;;;;;41.00;39.00;;;;;11.75;43.28;99403.31;5054136;28;45390;-78
2024/01/18 07:42:07;;;;;;;;;49.75;37.50;;;;;11.69;43.02;99408.25;5051488;28;45446;-78
2024/01/18 07:44:33;;;;;;;;;39.50;35.00;;;;;11.71;42.85;99415.22;5054198;28;45381;-73
2024/01/18 07:46:58;;;;;;;;;49.00;41.33;;;;;11.69;43.15;99424.34;5054027;28;45307;-75
2024/01/18 07:49:23;;;;;;;;;51.33;38.00;;;;;11.58;42.91;99433.16;5054707;28;45393;-77
2024/01/18 07:51:49;;;;;;;;;44.67;37.33;;;;;11.58;42.74;99446.59;5054057;28;46022;-77
2024/01/18 07:54:15;;;;;;;;;46.00;42.00;;;;;11.57;43.30;99438.66;5044533;28;45554;-79
2024/01/18 07:56:41;;;;;;;;;40.50;37.50;;;;;11.51;43.58;99444.44;5021348;28;46262;-79
2024/01/18 07:59:06;;;;;;;;;46.00;42.67;;;;;11.61;43.21;99475.03;5042664;28;45418;-78
2024/01/18 08:01:32;;;;;;;;;40.33;38.00;;;;;11.58;43.23;99465.38;5021992;28;46221;-79
2024/01/18 08:03:57;;;;;;;;;49.33;42.00;;;;;11.52;42.47;99465.81;5050176;28;45615;-79
2024/01/18 08:06:22;;;;;;;;;46.33;41.67;;;;;11.37;42.87;99454.34;5055822;28;45500;-78
2024/01/18 08:08:48;;;;;;;;;39.00;38.33;;;;;11.49;42.98;99484.81;5048661;28;45723;-76
2024/01/18 08:11:13;;;;;;;;;45.00;38.67;;;;;11.59;43.03;99499.31;5059291;28;46698;-77
2024/01/18 08:13:40;;;;;;;;;39.00;32.67;;;;;11.52;42.81;99502.53;5052903;28;45240;-77
2024/01/18 08:16:07;;;;;;;;;35.33;33.67;;;;;11.51;42.92;99506.16;5024714;28;45370;-77
2024/01/18 08:18:32;;;;;;;;;44.33;38.67;;;;;11.49;43.04;99508.97;5054209;28;45371;-78
2024/01/18 08:20:58;;;;;;;;;36.00;34.67;;;;;11.58;43.35;99527.09;5057009;28;45509;-77
2024/01/18 08:23:23;;;;;;;;;32.67;30.33;;;;;11.58;43.62;99531.63;5041107;28;45756;-78
2024/01/18 08:25:49;;;;;;;;;52.67;43.33;;;;;11.39;43.11;99507.91;5059401;28;45484;-78
2024/01/18 08:28:14;;;;;;;;;42.00;40.00;;;;;11.31;43.22;99515.63;5060449;28;45364;-78
2024/01/18 08:30:40;;;;;;;;;42.33;41.33;;;;;11.62;42.79;99554.63;5056377;28;45478;-77
2024/01/18 08:33:08;;;;;;;;;44.67;38.67;;;;;11.40;42.89;99536.41;5027024;28;45511;-79
2024/01/18 08:35:33;;;;;;;;;41.00;36.33;;;;;11.65;42.98;99571.34;5037612;28;45490;-79
2024/01/18 08:38:00;;;;;;;;;55.33;40.67;;;;;11.58;43.60;99566.50;5019644;28;45934;-78
2024/01/18 08:40:25;;;;;;;;;41.67;39.33;;;;;11.58;43.23;99575.44;5037188;28;46218;-78
2024/01/18 08:42:50;;;;;;;;;50.67;41.33;;;;;11.64;42.57;99585.78;5036984;28;53183;-79
2024/01/18 08:45:16;;;;;;;;;48.33;41.33;;;;;11.68;42.82;99608.75;5037373;28;45287;-79
2024/01/18 08:47:41;;;;;;;;;49.00;42.00;;;;;11.56;42.97;99593.50;5018810;28;46003;-77
2024/01/18 08:50:06;;;;;;;;;48.00;39.00;;;;;11.64;42.95;99617.13;5037671;28;46430;-79
2024/01/18 08:52:32;;;;;;;;;42.33;39.33;;;;;11.61;42.97;99609.25;5036534;28;45356;-78
2024/01/18 08:54:58;;;;;;;;;51.33;46.00;;;;;11.73;42.91;99630.78;5037588;28;45483;-79
2024/01/18 08:57:23;;;;;;;;;43.67;38.67;;;;;11.61;42.29;99626.22;5029064;28;45375;-77
2024/01/18 08:59:48;;;;;;;;;46.67;39.67;;;;;11.70;42.66;99646.22;5018838;28;46826;-78
2024/01/18 09:02:14;;;;;;;;;56.33;45.33;;;;;11.71;43.05;99666.75;5018781;28;45581;-81
2024/01/18 09:04:40;;;;;;;;;44.00;39.33;;;;;11.62;42.97;99633.31;5037351;28;45345;-78
2024/01/18 09:07:05;;;;;;;;;42.67;39.00;;;;;11.70;42.43;99648.91;5019191;28;45363;-79
2024/01/18 09:09:30;;;;;;;;;49.33;40.67;;;;;11.80;42.81;99670.66;5038321;28;45568;-78
2024/01/18 09:11:57;;;;;;;;;44.67;41.00;;;;;11.82;42.72;99695.59;5039295;28;51734;-79
2024/01/18 09:14:23;;;;;;;;;47.67;41.00;;;;;11.85;42.96;99696.22;5036797;28;45547;-77
2024/01/18 09:16:49;;;;;;;;;46.33;42.67;;;;;11.84;42.74;99712.44;5038005;28;45430;-80
2024/01/18 09:19:14;;;;;;;;;47.00;42.33;;;;;11.83;43.01;99708.91;5038890;28;45343;-80
2024/01/18 09:21:44;;;;;;;;;47.33;41.67;;;;;11.81;42.63;99723.41;5036668;28;48091;-78
2024/01/18 09:24:10;;;;;;;;;54.67;43.00;;;;;11.77;42.51;99695.03;5037074;28;45461;-78
2024/01/18 09:26:36;;;;;;;;;58.67;42.00;;;;;11.93;42.44;99727.94;5038578;28;45433;-78
2024/01/18 09:29:02;;;;;;;;;55.00;46.00;;;;;12.09;41.75;99747.41;5036935;28;48138;-78
2024/01/18 09:31:27;;;;;;;;;48.33;42.00;;;;;12.17;41.82;99741.53;5037963;28;45325;-80
2024/01/18 09:33:53;;;;;;;;;53.33;46.00;;;;;12.19;41.35;99753.91;5020656;28;45534;-79
2024/01/18 09:36:18;;;;;;;;;57.33;45.33;;;;;12.19;41.87;99735.09;5017470;28;45360;-82
2024/01/18 09:38:44;;;;;;;;;47.33;44.00;;;;;12.31;41.74;99753.06;5017893;28;45737;-79
2024/01/18 09:41:10;;;;;;;;;59.33;45.00;;;;;12.42;41.35;99769.28;5015668;28;45301;-79
2024/01/18 09:43:37;;;;;;;;;50.00;42.67;;;;;12.21;41.19;99733.16;5016080;28;45499;-79
2024/01/18 09:46:07;;;;;;;;;66.33;49.00;;;;;12.43;41.52;99781.78;5035798;28;45445;-77
2024/01/18 09:48:34;;;;;;;;;56.33;46.00;;;;;12.42;41.40;99763.06;5035234;28;45572;-79
2024/01/18 09:51:00;;;;;;;;;53.33;41.00;;;;;12.55;41.00;99784.59;5035863;28;45350;-78
2024/01/18 09:53:27;;;;;;;;;52.67;45.67;;;;;12.53;40.82;99792.75;5035793;28;45453;-76
2024/01/18 09:55:53;;;;;;;;;56.33;45.67;;;;;12.52;40.65;99802.66;5044888;28;45336;-75
2024/01/18 09:58:19;;;;;;;;;59.67;45.67;;;;;12.37;40.32;99784.88;5037230;28;45471;-78
2024/01/18 10:00:53;;;;;;;;;56.33;44.67;;;;;12.48;40.43;99819.97;5036551;28;45390;-78
2024/01/18 10:03:19;;;;;;;;;50.33;42.67;;;;;12.51;40.93;99830.50;5036327;28;45342;-79
2024/01/18 10:05:46;;;;;;;;;53.67;45.33;;;;;12.49;40.82;99840.53;5035748;28;45394;-80
2024/01/18 10:08:11;;;;;;;;;55.00;44.00;;;;;12.47;40.25;99836.19;5036576;28;46274;-79
2024/01/18 10:10:37;;;;;;;;;44.67;42.00;;;;;12.45;40.56;99843.50;5036317;28;45356;-77
2024/01/18 10:13:03;;;;;;;;;49.33;44.00;;;;;12.61;41.16;99868.38;5018931;28;45495;-78
2024/01/18 10:15:32;;;;;;;;;51.67;42.00;;;;;12.57;40.93;99857.94;5035402;28;45333;-79
2024/01/18 10:17:57;;;;;;;;;61.00;48.00;;;;;12.75;40.35;99892.53;5035233;28;46139;-79
2024/01/18 10:20:23;;;;;;;;;52.00;45.67;;;;;12.69;40.78;99883.97;5036108;28;45421;-78
2024/01/18 10:22:49;;;;;;;;;60.67;49.00;;;;;12.75;40.75;99907.78;5036179;28;45389;-78
2024/01/18 10:25:16;;;;;;;;;61.00;48.33;;;;;12.74;40.50;99908.75;5036385;28;45324;-79
2024/01/18 10:27:42;;;;;;;;;56.00;47.33;;;;;12.69;40.58;99903.66;5035648;28;45383;-78
2024/01/18 10:30:11;;;;;;;;;64.00;51.33;;;;;12.89;41.02;99932.78;5034968;28;45398;-78
2024/01/18 10:32:38;;;;;;;;;63.67;49.33;;;;;12.81;40.45;99918.13;5034595;28;45408;-76
2024/01/18 10:35:03;;;;;;;;;63.00;51.00;;;;;12.80;40.64;99917.25;5035055;28;45572;-77
2024/01/18 10:37:29;;;;;;;;;53.33;45.67;;;;;12.93;40.04;99937.97;5036209;28;46277;-79
2024/01/18 10:39:54;;;;;;;;;55.67;47.33;;;;;12.99;39.93;99957.22;5033336;28;45524;-76
2024/01/18 10:42:21;;;;;;;;;56.33;45.00;;;;;12.95;40.16;99960.22;5034260;28;45466;-77
2024/01/18 10:44:51;;;;;;;;;53.00;45.00;;;;;12.80;40.51;99928.03;5035256;28;45315;-77
2024/01/18 10:47:16;;;;;;;;;60.67;50.67;;;;;12.83;39.88;99921.59;5034589;28;45464;-78
2024/01/18 10:49:45;;;;;;;;;55.00;48.00;;;;;13.08;39.70;99969.19;5034704;28;45478;-80
2024/01/18 10:52:13;;;;;;;;;57.67;46.33;;;;;12.85;40.22;99933.94;5034949;28;45329;-78
2024/01/18 10:54:39;;;;;;;;;52.00;44.00;;;;;13.11;39.72;99971.66;5014884;28;46464;-75
2024/01/18 10:57:04;;;;;;;;;52.67;42.67;;;;;13.04;39.51;99965.84;5034482;28;46037;-81
2024/01/18 10:59:30;;;;;;;;;50.00;42.67;;;;;13.12;39.42;99976.94;5035216;28;45395;-78
2024/01/18 11:02:00;;;;;;;;;52.33;46.00;;;;;13.07;39.60;99970.16;5040522;28;45320;-80
2024/01/18 11:04:27;;;;;;;;;61.00;48.00;;;;;13.25;39.36;99985.94;5035694;28;45481;-79
2024/01/18 11:06:55;;;;;;;;;53.33;44.67;;;;;13.32;39.10;99997.13;5019229;28;48078;-78
2024/01/18 11:09:22;;;;;;;;;56.67;44.33;;;;;13.37;39.70;100004.88;5017570;28;45457;-78
2024/01/18 11:11:48;;;;;;;;;59.00;47.33;;;;;13.28;38.96;99982.16;5035431;28;45373;-80
2024/01/18 11:14:14;;;;;;;;;58.33;48.00;;;;;13.48;39.46;100013.97;5034455;28;45366;-78
2024/01/18 11:16:39;;;;;;;;;53.67;45.33;;;;;13.63;38.84;100012.88;5015773;28;47408;-74
2024/01/18 11:19:05;;;;;;;;;46.75;40.50;;;;;13.73;38.85;100014.94;5034379;28;45413;-72
2024/01/18 11:21:42;;;;;;;;;50.00;42.67;;;;;13.86;38.66;100013.09;5034312;28;47824;-78
2024/01/18 11:24:10;;;;;;;;;51.33;43.33;;;;;14.12;38.80;100020.16;5035651;28;45462;-78
2024/01/18 11:26:36;;;;;;;;;50.50;43.25;;;;;14.33;38.51;100025.84;5036092;28;45434;-77
2024/01/18 11:29:22;;;;;;;;;56.00;45.75;;;;;15.00;38.02;100021.75;5035652;28;45497;-79
2024/01/18 11:31:51;;;;;;;;;50.25;45.00;;;;;15.72;36.54;100027.91;5033955;28;45449;-75
2024/01/18 11:34:36;;;;;;;;;44.75;40.25;;;;;16.44;35.01;100022.09;5034031;28;45284;-77
2024/01/18 11:37:15;;;;;;;;;46.25;41.25;;;;;17.20;33.05;100029.31;5034080;28;46145;-75
2024/01/18 11:39:52;;;;;;;;;54.00;41.00;;;;;18.01;32.71;100031.34;5034012;28;45319;-75
2024/01/18 11:42:21;;;;;;;;;44.25;40.50;;;;;18.50;32.59;100030.53;5032618;28;45478;-70
2024/01/18 11:44:53;;;;;;;;;39.75;32.50;;;;;18.85;31.70;100038.22;5033937;28;45585;-73
2024/01/18 11:47:19;;;;;;;;;36.50;33.50;;;;;18.92;31.37;100030.38;5033615;28;45629;-77
2024/01/18 11:49:45;;;;;;;;;46.00;38.25;;;;;18.81;30.67;100024.06;5032984;28;45391;-78
2024/01/18 11:52:12;;;;;;;;;47.00;37.50;;;;;18.51;31.57;100048.53;5034504;28;45393;-76
2024/01/18 11:54:38;;;;;;;;;54.00;43.00;;;;;17.90;31.58;100058.53;5033908;28;45417;-77
2024/01/18 11:57:13;;;;;;;;;50.00;41.50;;;;;17.27;31.50;100063.00;5040732;28;45922;-79
2024/01/18 11:59:41;;;;;;;;;54.00;44.50;;;;;16.94;32.55;100075.69;5029471;28;45549;-78
2024/01/18 12:02:08;;;;;;;;;44.00;38.75;;;;;16.19;33.41;100045.75;5014316;28;45456;-80
2024/01/18 12:04:33;;;;;;;;;51.25;43.50;;;;;16.26;33.99;100100.19;5031659;28;45849;-78
2024/01/18 12:06:59;;;;;;;;;54.50;43.50;;;;;16.12;34.37;100097.75;5033446;28;45940;-77
2024/01/18 12:09:27;;;;;;;;;44.00;39.00;;;;;15.50;34.42;100076.44;5033635;28;45347;-78
2024/01/18 12:11:55;;;;;;;;;55.00;43.00;;;;;15.20;35.09;100108.47;5034040;28;45325;-80
2024/01/18 12:14:20;;;;;;;;;53.25;43.00;;;;;14.77;35.90;100104.44;5032937;28;46664;-82
2024/01/18 12:16:46;;;;;;;;;53.33;42.33;;;;;14.45;36.53;100097.81;5033923;28;45541;-81
2024/01/18 12:19:12;;;;;;;;;56.00;44.00;;;;;14.29;36.94;100087.22;5034419;28;45379;-81
2024/01/18 12:21:37;;;;;;;;;58.00;46.50;;;;;14.16;36.78;100099.84;5015296;28;45465;-78
2024/01/18 12:24:03;;;;;;;;;47.00;40.00;;;;;14.35;37.06;100134.47;5015899;28;47207;-79
2024/01/18 12:26:30;;;;;;;;;46.00;40.50;;;;;14.31;37.18;100141.03;5033921;28;45497;-80
2024/01/18 12:28:56;;;;;;;;;50.25;42.25;;;;;14.26;37.05;100144.06;5033176;28;45461;-79
2024/01/18 12:31:22;;;;;;;;;55.25;40.25;;;;;14.33;37.13;100136.41;5033548;28;45388;-79
2024/01/18 12:33:48;;;;;;;;;40.75;35.25;;;;;14.17;36.81;100116.91;5033146;28;45419;-79
2024/01/18 12:36:13;;;;;;;;;45.00;39.50;;;;;14.28;36.96;100131.34;5015213;28;46956;-78
2024/01/18 12:38:38;;;;;;;;;43.75;40.50;;;;;14.24;37.11;100150.53;5033581;28;45269;-79
2024/01/18 12:41:04;;;;;;;;;44.50;39.25;;;;;14.23;37.20;100143.41;5031670;28;45409;-80
2024/01/18 12:43:29;;;;;;;;;56.33;47.33;;;;;14.05;37.47;100142.00;5036629;28;45588;-79
2024/01/18 12:45:55;;;;;;;;;52.00;40.67;;;;;13.99;37.50;100154.94;5036905;28;47838;-78
2024/01/18 12:48:22;;;;;;;;;50.33;41.67;;;;;13.86;38.35;100145.13;5036706;28;47153;-78
2024/01/18 12:50:47;;;;;;;;;58.25;46.00;;;;;13.73;39.23;100120.00;5035222;28;45628;-78
2024/01/18 12:53:13;;;;;;;;;52.00;40.75;;;;;13.99;39.11;100167.56;5033005;28;45539;-79
2024/01/18 12:55:39;;;;;;;;;50.00;43.50;;;;;13.94;38.30;100172.41;5033830;28;45449;-77
2024/01/18 12:58:04;;;;;;;;;53.00;43.33;;;;;13.99;38.11;100181.03;5036254;28;45767;-76
2024/01/18 13:00:35;;;;;;;;;46.50;40.50;;;;;13.89;38.09;100186.19;5018430;28;45386;-77
2024/01/18 13:03:15;;;;;;;;;43.00;40.25;;;;;13.71;38.19;100186.56;5035820;28;45582;-77
2024/01/18 13:05:47;;;;;;;;;54.75;44.00;;;;;13.70;39.33;100174.94;5017861;28;48420;-77
2024/01/18 13:08:15;;;;;;;;;40.25;39.25;;;;;13.81;38.86;100187.69;5018529;28;45349;-77
2024/01/18 13:10:41;;;;;;;;;35.50;34.00;;;;;13.88;38.14;100172.81;5036281;28;45634;-77
2024/01/18 13:13:08;;;;;;;;;35.50;33.00;;;;;14.02;37.70;100186.22;5035871;28;45561;-77
2024/01/18 13:15:34;;;;;;;;;30.75;30.75;;;;;14.06;37.42;100184.16;5036160;28;46651;-77
2024/01/18 13:18:06;;;;;;;;;44.75;33.25;;;;;14.12;37.39;100197.25;5035993;28;45200;-78
2024/01/18 13:20:32;;;;;;;;;32.50;30.25;;;;;14.08;37.23;100188.50;5036714;28;45359;-77
2024/01/18 13:22:57;;;;;;;;;34.50;31.25;;;;;14.16;37.51;100205.00;5036056;28;45374;-79
2024/01/18 13:25:23;;;;;;;;;37.00;33.00;;;;;14.23;37.99;100216.22;5035633;28;53896;-77
2024/01/18 13:27:48;;;;;;;;;34.75;34.75;;;;;14.02;38.06;100178.13;5035517;28;45385;-77
2024/01/18 13:30:14;;;;;;;;;31.25;31.25;;;;;14.28;37.12;100220.34;5017963;28;45530;-78
2024/01/18 13:32:39;;;;;;;;;32.75;30.00;;;;;14.30;37.23;100225.59;5031229;28;45550;-78
2024/01/18 13:35:05;;;;;;;;;40.75;35.25;;;;;14.32;36.75;100234.44;5034892;28;46411;-77
2024/01/18 13:37:30;;;;;;;;;34.00;34.00;;;;;14.27;37.20;100234.78;5018180;28;45916;-76
2024/01/18 13:39:55;;;;;;;;;32.25;31.25;;;;;14.21;37.53;100227.09;5033953;28;45539;-78
2024/01/18 13:42:21;;;;;;;;;33.00;31.50;;;;;14.19;37.47;100231.75;5035194;28;47244;-78
2024/01/18 13:44:46;;;;;;;;;31.50;26.75;;;;;14.24;37.10;100240.38;5035153;28;53943;-78
2024/01/18 13:47:11;;;;;;;;;34.00;31.25;;;;;14.18;37.42;100248.88;5035469;28;45419;-76
2024/01/18 13:49:38;;;;;;;;;25.00;22.25;;;;;14.09;37.59;100252.22;5035375;28;45359;-79
2024/01/18 13:52:04;;;;;;;;;32.00;27.50;;;;;14.23;37.86;100262.03;5017618;28;47934;-77
2024/01/18 13:54:29;;;;;;;;;39.50;33.00;;;;;14.26;37.38;100264.53;5033136;28;46740;-78
2024/01/18 13:56:55;;;;;;;;;34.75;33.00;;;;;14.27;37.50;100266.28;5047835;28;45374;-77
2024/01/18 13:59:20;;;;;;;;;29.50;29.50;;;;;14.28;37.22;100276.09;5035633;28;45676;-79
2024/01/18 14:01:45;;;;;;;;;30.00;28.50;;;;;14.33;37.36;100271.22;5035191;28;45518;-79
2024/01/18 14:04:11;;;;;;;;;34.00;29.50;;;;;14.44;37.37;100282.19;5035362;28;45394;-78
2024/01/18 14:06:36;;;;;;;;;19.25;17.00;;;;;14.49;37.15;100287.25;5017220;28;45324;-77
2024/01/18 14:09:02;;;;;;;;;22.50;22.50;;;;;14.60;37.60;100292.78;5035584;28;45952;-77
2024/01/18 14:11:28;;;;;;;;;27.75;25.75;;;;;14.60;37.10;100292.78;5011462;28;46907;-78
2024/01/18 14:13:53;;;;;;;;;27.00;27.00;;;;;14.58;36.67;100297.41;5034643;28;45435;-79
2024/01/18 14:16:19;;;;;;;;;21.75;18.75;;;;;14.49;36.72;100304.28;5016568;28;58300;-78
2024/01/18 14:18:44;;;;;;;;;22.50;20.00;;;;;14.22;37.32;100268.41;5034946;28;45464;-78
2024/01/18 14:21:10;;;;;;;;;24.00;18.75;;;;;14.47;37.17;100311.63;5035242;28;45444;-78
2024/01/18 14:23:35;;;;;;;;;25.00;23.00;;;;;14.52;37.04;100306.78;5034911;28;45484;-78
2024/01/18 14:26:02;;;;;;;;;22.00;19.25;;;;;14.66;36.97;100305.81;5035019;28;45276;-78
2024/01/18 14:28:29;;;;;;;;;18.00;16.50;;;;;15.02;36.43;100307.78;5034812;28;45442;-78
2024/01/18 14:30:55;;;;;;;;;16.25;16.25;;;;;15.48;35.96;100305.34;5031865;28;45493;-78
2024/01/18 14:33:21;;;;;;;;;21.25;17.00;;;;;16.08;35.03;100324.25;5042895;28;45487;-77
2024/01/18 14:35:46;;;;;;;;;18.00;16.75;;;;;16.47;34.54;100325.78;5017128;28;45383;-78
2024/01/18 14:38:12;;;;;;;;;16.00;16.00;;;;;16.79;33.32;100317.88;5035332;28;45305;-80
2024/01/18 14:40:37;;;;;;;;;14.00;12.50;;;;;17.07;32.18;100323.84;5032190;28;45553;-79
2024/01/18 14:43:03;;;;;;;;;21.50;18.75;;;;;17.41;32.27;100344.53;5036149;28;46088;-79
2024/01/18 14:45:30;;;;;;;;;14.75;14.00;;;;;17.61;32.03;100337.50;5035688;28;45435;-79
2024/01/18 14:48:09;;;;;;;;;14.50;14.50;;;;;17.94;30.99;100361.91;5035211;28;45263;-78
2024/01/18 14:50:35;;;;;;;;;16.75;15.00;;;;;18.00;32.03;100371.38;5034659;28;45539;-79
2024/01/18 14:53:01;;;;;;;;;19.75;15.50;;;;;17.83;30.95;100342.94;5016596;28;47136;-77
2024/01/18 14:55:26;;;;;;;;;11.50;11.50;;;;;18.24;31.13;100376.59;5020985;28;45343;-79
2024/01/18 14:57:53;;;;;;;;;15.50;15.25;;;;;18.16;30.91;100382.69;5022945;28;45273;-78
2024/01/18 15:00:18;;;;;;;;;16.50;16.00;;;;;18.45;30.54;100391.97;5034546;28;45633;-82
2024/01/18 15:02:43;;;;;;;;;17.25;13.00;;;;;18.50;30.45;100378.84;5034137;28;45465;-79
2024/01/18 15:05:09;;;;;;;;;19.75;14.75;;;;;18.72;30.07;100402.34;5034387;28;45438;-79
2024/01/18 15:07:34;;;;;;;;;8.00;8.00;;;;;18.83;29.75;100406.88;5034495;28;45366;-77
2024/01/18 15:10:00;;;;;;;;;12.75;11.25;;;;;19.01;29.28;100409.88;5034723;28;45509;-76
2024/01/18 15:12:25;;;;;;;;;12.00;11.00;;;;;19.27;29.08;100431.06;5033397;28;49109;-78
2024/01/18 15:14:50;;;;;;;;;12.00;8.25;;;;;19.20;28.27;100437.19;5016534;28;50989;-79
2024/01/18 15:17:16;;;;;;;;;10.75;10.75;;;;;19.16;28.61;100441.16;5034001;28;45521;-77
2024/01/18 15:19:41;;;;;;;;;11.00;11.00;;;;;19.03;28.85;100437.78;5016243;28;51234;-77
2024/01/18 15:22:06;;;;;;;;;9.50;9.50;;;;;18.74;29.13;100442.97;5034349;28;46059;-79
2024/01/18 15:24:32;;;;;;;;;9.50;8.00;;;;;18.34;29.77;100453.56;5024961;28;45505;-80
2024/01/18 15:26:57;;;;;;;;;10.00;10.00;;;;;17.85;30.32;100438.59;5033324;28;45422;-79
2024/01/18 15:29:22;;;;;;;;;10.00;10.00;;;;;17.44;30.55;100476.25;5033773;28;45526;-79
2024/01/18 15:31:48;;;;;;;;;10.00;9.75;;;;;16.95;30.93;100475.47;5033646;28;46206;-78
2024/01/18 15:34:13;;;;;;;;;10.00;10.00;;;;;16.63;31.87;100499.56;5034146;28;45341;-80
2024/01/18 15:36:39;;;;;;;;;9.25;9.25;;;;;16.45;32.53;100500.03;5016714;28;45576;-80
2024/01/18 15:39:05;;;;;;;;;8.75;8.50;;;;;16.24;32.47;100495.25;5016083;28;45422;-74
2024/01/18 15:41:32;;;;;;;;;11.25;9.00;;;;;15.92;32.46;100488.59;5032437;28;45482;-74
2024/01/18 15:43:57;;;;;;;;;12.50;9.75;;;;;15.68;33.11;100493.91;5034672;28;45339;-78
2024/01/18 15:46:25;;;;;;;;;8.50;8.50;;;;;15.15;33.79;100516.53;5015761;28;45286;-80
2024/01/18 15:48:53;;;;;;;;;9.00;8.50;;;;;14.71;34.72;100528.53;5034106;28;45508;-77
2024/01/18 15:51:23;;;;;;;;;6.00;6.00;;;;;14.43;34.78;100523.19;5033307;28;45530;-77
2024/01/18 15:53:52;;;;;;;;;6.00;6.00;;;;;14.18;34.59;100545.47;5034173;28;45355;-78
2024/01/18 15:56:18;;;;;;;;;8.50;8.50;;;;;14.00;35.25;100546.63;5044257;28;45394;-78
2024/01/18 15:58:44;;;;;;;;;8.75;7.25;;;;;13.71;35.36;100553.81;5033606;28;45289;-79
2024/01/18 16:01:09;;;;;;;;;10.50;10.50;;;;;13.56;36.08;100552.94;5033588;28;45982;-77
2024/01/18 16:03:37;;;;;;;;;9.50;7.00;;;;;13.16;36.15;100518.63;5018832;28;45783;-78
2024/01/18 16:06:06;;;;;;;;;7.00;7.00;;;;;13.33;36.94;100545.41;5033958;28;45503;-77
2024/01/18 16:08:34;;;;;;;;;7.00;6.00;;;;;13.30;36.29;100563.56;5033926;28;45621;-79
2024/01/18 16:11:00;;;;;;;;;10.00;8.25;;;;;13.23;36.04;100572.00;5033655;28;45462;-79
2024/01/18 16:13:26;;;;;;;;;9.00;6.25;;;;;13.29;36.84;100584.22;5033312;28;45475;-77
2024/01/18 16:15:56;;;;;;;;;9.75;7.00;;;;;13.23;37.01;100576.53;5033585;28;45386;-76
2024/01/18 16:18:21;;;;;;;;;10.25;7.75;;;;;13.24;37.27;100579.13;5036068;28;45375;-76
2024/01/18 16:20:46;;;;;;;;;11.00;8.25;;;;;13.21;37.16;100576.59;5036825;28;45465;-77
2024/01/18 16:23:12;;;;;;;;;6.25;6.00;;;;;13.33;36.97;100596.56;5036397;28;45489;-71
2024/01/18 16:25:37;;;;;;;;;14.00;8.25;;;;;13.29;36.89;100605.75;5036604;28;45360;-78
2024/01/18 16:28:03;;;;;;;;;10.50;8.50;;;;;13.19;37.03;100608.13;5037012;28;45522;-75
2024/01/18 16:30:29;;;;;;;;;8.25;8.25;;;;;13.13;37.20;100608.50;5036125;28;46108;-79
2024/01/18 16:32:54;;;;;;;;;9.00;7.25;;;;;13.11;37.22;100614.88;5036417;28;45399;-72
2024/01/18 16:35:19;;;;;;;;;9.00;9.00;;;;;13.12;37.47;100622.88;5037071;28;45284;-79
2024/01/18 16:37:45;;;;;;;;;9.00;6.75;;;;;12.98;37.27;100611.19;5036747;28;45307;-80
2024/01/18 16:40:11;;;;;;;;;12.00;10.00;;;;;12.78;37.70;100623.06;5032407;28;48258;-79